createdAt,value
2019-01-13T00:00:42.698Z,3.44
2019-01-13T00:04:12.854Z,4.79
2019-01-13T00:07:43.087Z,3.79
2019-01-13T00:11:13.354Z,4.94
2019-01-13T00:14:43.416Z,4.29
2019-01-13T00:18:13.604Z,2.02
2019-01-13T00:21:43.625Z,3.96
2019-01-13T00:25:13.716Z,3.42
2019-01-13T00:28:43.864Z,3.36
2019-01-13T00:32:14.064Z,2.61
2019-01-13T00:35:44.124Z,5.22
2019-01-13T00:39:14.344Z,3.98
2019-01-13T00:42:44.454Z,4.74
2019-01-13T00:46:14.724Z,5.25
2019-01-13T00:49:44.754Z,4.11
2019-01-13T00:53:19.904Z,4.19
2019-01-13T12:51:59.629Z,9.34
2019-01-13T12:53:37.610Z,9.01
2019-01-13T12:57:07.780Z,7.86
2019-01-13T13:00:37.781Z,11.81
2019-01-13T13:04:07.991Z,17.22
2019-01-13T13:07:39.292Z,7.22
2019-01-13T13:11:09.402Z,7.56
2019-01-13T13:14:39.523Z,7.15
2019-01-13T13:18:09.713Z,8.69
2019-01-13T13:21:39.774Z,8.71
2019-01-13T13:25:10.796Z,8.95
2019-01-13T13:28:40.815Z,7.35
2019-01-13T13:32:10.858Z,6.96
2019-01-13T13:35:40.968Z,7.45
2019-01-13T13:39:11.086Z,8.75
2019-01-13T13:42:41.196Z,7.64
2019-01-13T13:46:11.357Z,6.88
2019-01-13T13:49:41.369Z,5.92
2019-01-13T13:53:11.438Z,6.74
2019-01-13T13:56:41.579Z,6.2
2019-01-13T14:00:20.180Z,6.47
2019-01-13T14:03:50.239Z,6.51
2019-01-13T14:07:20.402Z,5.45
2019-01-13T14:10:51.326Z,6.27
2019-01-13T14:14:21.485Z,6.75
2019-01-13T14:17:51.448Z,7.16
2019-01-13T14:21:21.592Z,7.58
2019-01-13T14:24:51.602Z,8.24
2019-01-13T14:28:21.753Z,6.66
2019-01-13T14:31:51.842Z,6.16
2019-01-13T14:35:22.093Z,6.35
2019-01-13T14:38:52.183Z,6.56
2019-01-13T14:42:22.393Z,9.38
2019-01-13T14:45:52.444Z,7.77
2019-01-13T14:49:22.634Z,8.21
2019-01-13T14:52:52.794Z,9.68
2019-01-13T14:56:22.878Z,15.24
2019-01-13T14:59:52.955Z,9.36
2019-01-13T15:03:23.056Z,13.07
2019-01-13T15:06:52.966Z,15.17
2019-01-13T15:10:23.156Z,11.3
2019-01-13T15:13:54.166Z,9.12
2019-01-13T15:17:24.267Z,8.51
2019-01-13T15:20:54.257Z,9.29
2019-01-13T15:24:24.347Z,9.3
2019-01-13T15:27:54.437Z,8.99
2019-01-13T15:31:25.591Z,11.41
2019-01-13T15:34:55.638Z,9.59
2019-01-13T15:38:25.697Z,8.98
2019-01-13T15:41:55.690Z,6.29
2019-01-13T15:45:25.959Z,8.85
2019-01-13T15:48:56.039Z,10.85
2019-01-13T15:52:26.132Z,8.78
2019-01-13T15:55:56.099Z,9.17
2019-01-13T15:59:26.211Z,7.84
2019-01-13T16:00:22.949Z,9.54
2019-01-13T16:03:52.969Z,9.62
2019-01-13T16:07:23.130Z,9.77
2019-01-13T16:10:53.140Z,6.59
2019-01-13T16:14:24.215Z,10.12
2019-01-13T16:17:54.300Z,10.71
2019-01-13T16:21:24.628Z,8.49
2019-01-13T16:24:54.730Z,7.55
2019-01-13T16:28:24.871Z,8.95
2019-01-13T16:31:54.924Z,9.22
2019-01-13T16:35:25.111Z,9.73
2019-01-13T16:38:55.161Z,11.94
2019-01-13T16:42:25.201Z,6.55
2019-01-13T16:45:55.201Z,12.34
2019-01-13T16:49:25.304Z,8.66
2019-01-13T16:52:56.373Z,6.91
2019-01-13T16:56:26.412Z,8.9
2019-01-13T16:59:57.140Z,10.7
2019-01-13T17:03:27.312Z,10.84
2019-01-13T17:06:57.373Z,4.38
2019-01-13T17:10:27.535Z,8.78
2019-01-13T17:13:57.549Z,5.36
2019-01-13T17:17:28.763Z,10.04
2019-01-13T17:20:58.706Z,9.62
2019-01-13T17:24:28.763Z,10.32
2019-01-13T17:27:58.963Z,7.3
2019-01-13T17:31:29.074Z,3.88
2019-01-13T17:34:59.014Z,9.57
2019-01-13T17:38:29.174Z,12.88
2019-01-13T17:41:59.174Z,8.78
2019-01-13T17:45:30.661Z,5.94
2019-01-13T17:49:00.754Z,6.72
2019-01-13T17:52:30.815Z,10.1
2019-01-13T17:56:01.005Z,6.28
2019-01-13T17:59:31.125Z,6.83
2019-01-13T18:00:22.516Z,5.79
2019-01-13T18:03:52.766Z,7.71
2019-01-13T18:07:22.876Z,6.54
2019-01-13T18:10:52.906Z,7.22
2019-01-13T18:14:22.967Z,7.62
2019-01-13T18:17:53.991Z,7.94
2019-01-13T18:21:24.229Z,7.71
2019-01-13T18:24:54.317Z,9.86
2019-01-13T18:28:24.307Z,14.53
2019-01-13T18:31:54.348Z,9.99
2019-01-13T18:35:24.448Z,12.95
2019-01-13T18:38:54.348Z,16.68
2019-01-13T18:42:24.508Z,17.11
2019-01-13T18:45:54.638Z,19
2019-01-13T18:49:24.858Z,15.71
2019-01-13T18:52:58.587Z,17.06
2019-01-13T18:56:28.659Z,16.51
2019-01-13T18:59:58.746Z,16.05
2019-01-13T19:03:28.969Z,15.07
2019-01-13T19:06:59.159Z,15.4
2019-01-13T19:10:41.160Z,14.06
2019-01-13T19:14:38.620Z,13.46
2019-01-13T19:18:09.711Z,11.78
2019-01-13T19:21:39.711Z,10.69
2019-01-13T19:25:14.730Z,13.07
2019-01-13T19:28:44.790Z,10.07
2019-01-13T19:32:15.001Z,10.51
2019-01-13T19:35:45.101Z,10.5
2019-01-13T19:39:15.151Z,13.09
2019-01-13T19:42:45.223Z,12.69
2019-01-13T19:46:15.302Z,12.72
2019-01-13T19:49:45.291Z,12.53
2019-01-13T19:53:15.375Z,15.5
2019-01-13T19:56:45.421Z,18.35
2019-01-13T20:00:27.271Z,22.74
2019-01-13T20:03:57.302Z,16.23
2019-01-13T20:07:27.372Z,15.36
2019-01-13T20:10:57.442Z,11
2019-01-13T20:14:27.572Z,18.95
2019-01-13T20:17:57.683Z,20.69
2019-01-13T20:21:28.833Z,15.69
2019-01-13T20:24:58.827Z,14.71
2019-01-13T20:28:28.913Z,12.93
2019-01-13T20:31:59.002Z,12.69
2019-01-13T20:35:29.059Z,14.19
2019-01-13T20:38:59.097Z,11.47
2019-01-13T20:42:29.143Z,10.2
2019-01-13T20:45:59.118Z,12.72
2019-01-13T20:49:29.194Z,12.61
2019-01-13T20:52:59.264Z,8.21
2019-01-13T20:56:29.394Z,12.05
2019-01-13T20:59:59.465Z,12.85
2019-01-13T21:03:29.706Z,9.45
2019-01-13T21:06:59.835Z,10.71
2019-01-13T21:10:29.925Z,11.9
2019-01-13T21:13:59.945Z,9.48
2019-01-13T21:17:30.065Z,11.19
2019-01-13T21:21:00.205Z,10.99
2019-01-13T21:24:30.365Z,12.16
2019-01-13T21:28:01.345Z,12.35
2019-01-13T21:31:31.412Z,12.73
2019-01-13T21:35:01.518Z,12.01
2019-01-13T21:38:31.581Z,12.68
2019-01-13T21:42:01.726Z,11.16
2019-01-13T21:45:31.788Z,9.96
2019-01-13T21:49:01.818Z,9.68
2019-01-13T21:52:31.847Z,10.36
2019-01-13T21:56:01.978Z,5.76
2019-01-13T21:59:32.027Z,12.69
2019-01-13T22:00:19.747Z,14.11
2019-01-13T22:03:49.757Z,11.97
2019-01-13T22:07:19.714Z,11.4
2019-01-13T22:10:49.738Z,12.75
2019-01-13T22:14:19.698Z,10.77
2019-01-13T22:17:49.858Z,14.4
2019-01-13T22:21:19.888Z,10.66
2019-01-13T22:24:50.869Z,13.92
2019-01-13T22:28:20.988Z,13.81
2019-01-13T22:31:51.002Z,13.56
2019-01-13T22:35:21.219Z,12.91
2019-01-13T22:38:51.309Z,13.11
2019-01-13T22:42:21.389Z,17.05
2019-01-13T22:45:51.415Z,11.68
2019-01-13T22:49:21.438Z,15.21
2019-01-13T22:52:51.520Z,19.23
2019-01-13T22:56:21.510Z,14.64
2019-01-13T22:59:51.489Z,14.47
2019-01-13T23:03:21.571Z,13.68
2019-01-13T23:06:51.620Z,12.9
2019-01-13T23:10:21.631Z,12.52
2019-01-13T23:13:51.673Z,12.7
2019-01-13T23:17:21.701Z,10.34
2019-01-13T23:20:52.301Z,11.88
2019-01-13T23:24:22.341Z,13.4
2019-01-13T23:27:53.342Z,10.4
2019-01-13T23:31:23.471Z,10.43
2019-01-13T23:34:53.461Z,14.15
2019-01-13T23:38:23.566Z,12.84
2019-01-13T23:41:53.834Z,12.09
2019-01-13T23:45:23.892Z,10.06
2019-01-13T23:48:54.992Z,11.09
2019-01-13T23:52:24.932Z,11.53
2019-01-13T23:55:55.013Z,12.89
2019-01-13T23:59:24.963Z,12.18
